createdAt,value
2022-11-04T00:00:00.260Z,11.1
2022-11-04T00:01:04.373Z,11.1
2022-11-04T00:02:01.267Z,11.1
2022-11-04T00:03:00.200Z,11.2
2022-11-04T00:04:00.190Z,11.2
2022-11-04T00:05:00.181Z,11.3
2022-11-04T00:06:00.715Z,11.3
2022-11-04T00:07:00.169Z,11.3
2022-11-04T00:08:00.155Z,11.3
2022-11-04T00:09:00.160Z,11.1
2022-11-04T00:10:00.162Z,11.1
2022-11-04T00:11:00.207Z,10.9
2022-11-04T00:12:00.154Z,10.9
2022-11-04T00:13:00.156Z,10.9
2022-11-04T00:14:00.182Z,10.9
2022-11-04T00:15:00.154Z,10.8
2022-11-04T00:16:00.676Z,10.8
2022-11-04T00:17:00.507Z,10.9
2022-11-04T00:18:00.149Z,10.9
2022-11-04T00:19:00.513Z,10.8
2022-11-04T00:20:00.161Z,10.8
2022-11-04T00:21:00.151Z,10.8
2022-11-04T00:22:00.151Z,10.8
2022-11-04T00:23:00.159Z,10.7
2022-11-04T00:24:00.198Z,10.7
2022-11-04T00:25:00.430Z,10.8
2022-11-04T00:26:00.155Z,10.8
2022-11-04T00:27:00.162Z,10.8
2022-11-04T00:28:02.077Z,10.8
2022-11-04T00:29:00.151Z,10.7
2022-11-04T00:30:00.557Z,10.7
2022-11-04T00:31:00.999Z,10.7
2022-11-04T00:32:00.152Z,10.7
2022-11-04T00:33:00.181Z,10.7
2022-11-04T00:34:00.179Z,10.7
2022-11-04T00:35:00.148Z,10.7
2022-11-04T00:36:00.167Z,10.7
2022-11-04T00:37:00.189Z,10.6
2022-11-04T00:38:00.176Z,10.6
2022-11-04T00:39:00.153Z,10.7
2022-11-04T00:40:00.165Z,10.7
2022-11-04T00:41:00.169Z,10.7
2022-11-04T00:42:00.175Z,10.7
2022-11-04T00:43:00.152Z,10.6
2022-11-04T00:44:01.525Z,10.6
2022-11-04T00:45:00.249Z,10.6
2022-11-04T00:46:00.152Z,10.6
2022-11-04T00:47:00.156Z,10.5
2022-11-04T00:48:00.175Z,10.5
2022-11-04T00:49:00.383Z,10.4
2022-11-04T00:50:00.189Z,10.4
2022-11-04T00:51:00.215Z,10.3
2022-11-04T00:52:00.157Z,10.3
2022-11-04T00:53:01.178Z,10.3
2022-11-04T00:54:00.229Z,10.3
2022-11-04T00:55:00.161Z,10.4
2022-11-04T00:56:00.160Z,10.4
2022-11-04T00:57:00.203Z,10.3
2022-11-04T00:58:00.263Z,10.3
2022-11-04T00:59:00.213Z,10.4
2022-11-04T01:00:00.154Z,10.4
2022-11-04T01:01:00.227Z,10.1
2022-11-04T01:02:00.288Z,10.1
2022-11-04T01:03:00.154Z,10.1
2022-11-04T01:04:00.214Z,10.1
2022-11-04T01:05:00.511Z,10.0
2022-11-04T01:06:00.168Z,10.0
2022-11-04T01:07:00.596Z,10.1
2022-11-04T01:08:00.158Z,10.1
2022-11-04T01:09:01.316Z,10.0
2022-11-04T01:10:00.156Z,10.0
2022-11-04T01:11:01.842Z,10.1
2022-11-04T01:12:00.292Z,10.1
2022-11-04T01:13:00.216Z,10.0
2022-11-04T01:14:00.465Z,10.0
2022-11-04T01:15:00.189Z,9.9
2022-11-04T01:16:00.883Z,9.9
2022-11-04T01:17:00.157Z,9.9
2022-11-04T01:18:00.154Z,9.9
2022-11-04T01:19:00.253Z,10.1
2022-11-04T01:20:00.176Z,10.1
2022-11-04T01:21:01.097Z,10.1
2022-11-04T01:22:00.155Z,10.1
2022-11-04T01:23:00.155Z,10.0
2022-11-04T01:24:00.636Z,10.0
2022-11-04T01:25:00.168Z,10.2
2022-11-04T01:26:00.261Z,10.2
2022-11-04T01:27:00.174Z,10.1
2022-11-04T01:28:00.156Z,10.1
2022-11-04T01:29:00.196Z,10.1
2022-11-04T01:30:00.170Z,10.1
2022-11-04T01:31:09.384Z,10.1
2022-11-04T01:32:00.186Z,10.1
2022-11-04T01:33:00.161Z,10.1
2022-11-04T01:34:00.186Z,10.1
2022-11-04T01:35:00.168Z,10.1
2022-11-04T01:36:00.278Z,10.1
2022-11-04T01:37:00.155Z,10.2
2022-11-04T01:38:00.156Z,10.2
2022-11-04T01:39:00.159Z,10.2
2022-11-04T01:40:00.183Z,10.2
2022-11-04T01:41:00.444Z,10.3
2022-11-04T01:42:00.223Z,10.3
2022-11-04T01:43:00.162Z,10.3
2022-11-04T01:44:03.017Z,10.3
2022-11-04T01:45:00.165Z,10.4
2022-11-04T01:46:00.450Z,10.4
2022-11-04T01:47:00.203Z,10.4
2022-11-04T01:48:06.960Z,10.4
2022-11-04T01:49:09.118Z,10.4
2022-11-04T01:50:03.774Z,10.4
2022-11-04T01:51:00.221Z,10.4
2022-11-04T01:52:05.205Z,10.4
2022-11-04T01:53:10.443Z,10.3
2022-11-04T01:54:01.039Z,10.3
2022-11-04T01:55:01.946Z,10.4
2022-11-04T01:56:03.219Z,10.4
2022-11-04T01:57:01.981Z,10.4
2022-11-04T01:58:03.063Z,10.4
2022-11-04T01:59:03.912Z,10.3
2022-11-04T02:00:01.559Z,10.3
2022-11-04T02:01:00.660Z,10.3
2022-11-04T02:02:00.387Z,10.3
2022-11-04T02:03:05.017Z,10.4
2022-11-04T02:04:00.442Z,10.4
2022-11-04T02:05:00.172Z,10.2
2022-11-04T02:06:00.793Z,10.2
2022-11-04T02:07:01.813Z,10.4
2022-11-04T02:08:02.946Z,10.4
2022-11-04T02:09:00.253Z,10.4
2022-11-04T02:10:00.214Z,10.4
2022-11-04T02:11:01.597Z,10.3
2022-11-04T02:12:00.343Z,10.3
2022-11-04T02:13:01.939Z,10.3
2022-11-04T02:14:00.786Z,10.3
2022-11-04T02:15:00.257Z,10.2
2022-11-04T02:16:10.096Z,10.2
2022-11-04T02:17:10.103Z,10.3
2022-11-04T02:18:03.427Z,10.3
2022-11-04T02:19:07.634Z,10.3
2022-11-04T02:20:07.606Z,10.3
2022-11-04T02:21:03.401Z,10.1
2022-11-04T02:22:00.148Z,10.1
2022-11-04T02:23:10.418Z,10.1
2022-11-04T02:24:10.094Z,10.1
2022-11-04T02:25:10.109Z,10.1
2022-11-04T02:26:10.108Z,10.1
2022-11-04T02:27:10.105Z,10.1
2022-11-04T02:28:03.402Z,10.1
2022-11-04T02:29:07.436Z,10.1
2022-11-04T02:30:01.176Z,10.1
2022-11-04T02:31:07.494Z,9.9
2022-11-04T02:32:10.107Z,9.9
2022-11-04T02:33:01.162Z,10.0
2022-11-04T02:34:01.198Z,10.0
2022-11-04T02:35:00.159Z,9.9
2022-11-04T02:36:03.772Z,9.9
2022-11-04T02:37:07.436Z,10.0
2022-11-04T02:38:01.168Z,10.0
2022-11-04T02:39:07.180Z,9.9
2022-11-04T02:40:03.410Z,9.9
2022-11-04T02:41:10.099Z,9.8
2022-11-04T02:42:03.368Z,9.8
2022-11-04T02:43:02.241Z,9.8
2022-11-04T02:44:07.439Z,9.8
2022-11-04T02:45:09.766Z,9.7
2022-11-04T02:46:10.095Z,9.7
2022-11-04T02:47:07.531Z,9.8
2022-11-04T02:48:04.662Z,9.8
2022-11-04T02:49:10.090Z,9.8
2022-11-04T02:50:06.642Z,9.8
2022-11-04T02:51:10.093Z,9.7
2022-11-04T02:52:03.471Z,9.7
2022-11-04T02:53:08.928Z,9.6
2022-11-04T02:54:05.696Z,9.6
2022-11-04T02:55:03.593Z,9.6
2022-11-04T02:56:01.390Z,9.6
2022-11-04T02:57:01.162Z,9.6
2022-11-04T02:58:03.573Z,9.6
2022-11-04T02:59:03.288Z,9.6
2022-11-04T03:00:03.057Z,9.6
2022-11-04T03:01:01.128Z,9.6
2022-11-04T03:02:01.913Z,9.6
2022-11-04T03:03:03.078Z,9.5
2022-11-04T03:04:04.826Z,9.5
2022-11-04T03:05:02.173Z,9.4
2022-11-04T03:06:00.719Z,9.4
2022-11-04T03:07:01.070Z,9.4
2022-11-04T03:08:03.234Z,9.4
2022-11-04T03:09:01.454Z,9.5
2022-11-04T03:10:04.033Z,9.5
2022-11-04T03:11:05.057Z,9.4
2022-11-04T03:12:02.577Z,9.4
2022-11-04T03:13:04.170Z,9.5
2022-11-04T03:14:10.094Z,9.5
2022-11-04T03:15:03.710Z,9.6
2022-11-04T03:16:02.620Z,9.6
2022-11-04T03:17:02.279Z,9.5
2022-11-04T03:18:10.495Z,9.5
2022-11-04T03:19:06.357Z,9.4
2022-11-04T03:20:02.785Z,9.4
2022-11-04T03:21:01.490Z,9.3
2022-11-04T03:22:03.140Z,9.3
2022-11-04T03:23:00.159Z,9.4
2022-11-04T03:24:00.870Z,9.4
2022-11-04T03:25:00.905Z,9.3
2022-11-04T03:26:06.592Z,9.3
2022-11-04T03:27:05.524Z,9.4
2022-11-04T03:28:04.742Z,9.4
2022-11-04T03:29:00.145Z,9.3
2022-11-04T03:30:03.255Z,9.3
2022-11-04T03:31:01.982Z,9.4
2022-11-04T03:32:10.103Z,9.4
2022-11-04T03:33:10.717Z,9.4
2022-11-04T03:34:00.164Z,9.4
2022-11-04T03:35:00.200Z,9.4
2022-11-04T03:36:00.315Z,9.4
2022-11-04T03:37:00.256Z,9.4
2022-11-04T03:38:00.832Z,9.4
2022-11-04T03:39:00.160Z,9.4
2022-11-04T03:40:01.118Z,9.4
2022-11-04T03:41:01.352Z,9.4
2022-11-04T03:42:02.905Z,9.4
2022-11-04T03:43:03.808Z,9.4
2022-11-04T03:44:00.394Z,9.4
2022-11-04T03:45:00.335Z,9.4
2022-11-04T03:46:00.302Z,9.4
2022-11-04T03:47:00.181Z,9.4
2022-11-04T03:48:00.172Z,9.4
2022-11-04T03:49:00.957Z,9.2
2022-11-04T03:50:04.212Z,9.2
2022-11-04T03:51:00.307Z,9.1
2022-11-04T03:52:00.170Z,9.1
2022-11-04T03:53:00.212Z,9.3
2022-11-04T03:54:00.404Z,9.3
2022-11-04T03:55:00.737Z,9.2
2022-11-04T03:56:10.100Z,9.2
2022-11-04T03:57:10.088Z,9.1
2022-11-04T03:58:10.533Z,9.1
2022-11-04T03:59:10.093Z,9.0
2022-11-04T04:00:01.172Z,9.0
2022-11-04T04:01:10.149Z,9.1
2022-11-04T04:02:05.192Z,9.1
2022-11-04T04:03:07.620Z,9.1
2022-11-04T04:04:04.820Z,9.1
2022-11-04T04:05:02.366Z,9.1
2022-11-04T04:06:06.328Z,9.1
2022-11-04T04:07:04.190Z,9.1
2022-11-04T04:08:09.819Z,9.1
2022-11-04T04:09:08.336Z,9.1
2022-11-04T04:10:10.090Z,9.1
2022-11-04T04:11:06.031Z,9.0
2022-11-04T04:12:04.199Z,9.0
2022-11-04T04:13:02.259Z,9.1
2022-11-04T04:14:03.061Z,9.1
2022-11-04T04:15:05.422Z,9.1
2022-11-04T04:16:03.629Z,9.1
2022-11-04T04:17:02.825Z,9.1
2022-11-04T04:18:02.649Z,9.1
2022-11-04T04:19:03.281Z,9.1
2022-11-04T04:20:03.151Z,9.1
2022-11-04T04:21:03.228Z,9.1
2022-11-04T04:22:03.984Z,9.1
2022-11-04T04:23:04.072Z,9.1
2022-11-04T04:24:01.277Z,9.1
2022-11-04T04:25:02.687Z,9.1
2022-11-04T04:26:02.356Z,9.1
2022-11-04T04:27:00.559Z,9.1
2022-11-04T04:28:00.923Z,9.1
2022-11-04T04:29:02.427Z,9.0
2022-11-04T04:30:03.913Z,9.0
2022-11-04T04:31:01.082Z,8.9
2022-11-04T04:32:02.131Z,8.9
2022-11-04T04:33:06.969Z,9.0
2022-11-04T04:34:00.387Z,9.0
2022-11-04T04:35:00.242Z,9.0
2022-11-04T04:36:00.627Z,9.0
2022-11-04T04:37:01.479Z,9.0
2022-11-04T04:38:02.970Z,9.0
2022-11-04T04:39:04.377Z,8.9
2022-11-04T04:40:00.227Z,8.9
2022-11-04T04:41:03.247Z,9.0
2022-11-04T04:42:00.493Z,9.0
2022-11-04T04:43:00.623Z,8.9
2022-11-04T04:44:00.240Z,8.9
2022-11-04T04:45:01.669Z,8.9
2022-11-04T04:46:01.117Z,8.9
2022-11-04T04:47:01.510Z,8.9
2022-11-04T04:48:00.215Z,8.9
2022-11-04T04:49:04.756Z,8.8
2022-11-04T04:50:00.828Z,8.8
2022-11-04T04:51:00.163Z,8.8
2022-11-04T04:52:01.624Z,8.8
2022-11-04T04:53:00.564Z,8.8
2022-11-04T04:54:00.165Z,8.8
2022-11-04T04:55:00.159Z,8.8
2022-11-04T04:56:00.155Z,8.8
2022-11-04T04:57:00.151Z,8.8
2022-11-04T04:58:00.157Z,8.8
2022-11-04T04:59:00.271Z,8.8
2022-11-04T05:00:00.345Z,8.8
2022-11-04T05:01:00.815Z,8.7
2022-11-04T05:02:00.446Z,8.7
2022-11-04T05:03:00.149Z,8.8
2022-11-04T05:04:00.151Z,8.8
2022-11-04T05:05:00.288Z,8.7
2022-11-04T05:06:00.154Z,8.7
2022-11-04T05:07:00.180Z,8.7
2022-11-04T05:08:04.010Z,8.7
2022-11-04T05:09:00.153Z,8.6
2022-11-04T05:10:00.213Z,8.6
2022-11-04T05:11:00.148Z,8.5
2022-11-04T05:12:00.176Z,8.5
2022-11-04T05:13:00.162Z,8.5
2022-11-04T05:14:00.171Z,8.5
2022-11-04T05:15:00.147Z,8.6
2022-11-04T05:16:04.553Z,8.6
2022-11-04T05:17:00.161Z,8.4
2022-11-04T05:18:00.782Z,8.4
2022-11-04T05:19:00.162Z,8.5
2022-11-04T05:20:00.155Z,8.5
2022-11-04T05:21:04.550Z,8.6
2022-11-04T05:22:00.233Z,8.6
2022-11-04T05:23:00.230Z,8.4
2022-11-04T05:24:00.156Z,8.4
2022-11-04T05:25:00.161Z,8.5
2022-11-04T05:26:00.184Z,8.5
2022-11-04T05:27:00.157Z,8.4
2022-11-04T05:28:00.493Z,8.4
2022-11-04T05:29:00.159Z,8.4
2022-11-04T05:30:00.163Z,8.4
2022-11-04T05:31:01.899Z,8.5
2022-11-04T05:32:00.153Z,8.5
2022-11-04T05:33:04.621Z,8.4
2022-11-04T05:34:00.168Z,8.4
2022-11-04T05:35:00.182Z,8.4
2022-11-04T05:36:10.098Z,8.4
2022-11-04T05:37:00.155Z,8.4
2022-11-04T05:38:00.377Z,8.4
2022-11-04T05:39:00.160Z,8.4
2022-11-04T05:40:00.170Z,8.4
2022-11-04T05:41:00.159Z,8.4
2022-11-04T05:42:00.168Z,8.4
2022-11-04T05:43:00.163Z,8.4
2022-11-04T05:44:01.981Z,8.4
2022-11-04T05:45:00.151Z,8.4
2022-11-04T05:46:00.588Z,8.4
2022-11-04T05:47:00.157Z,8.3
2022-11-04T05:48:00.990Z,8.3
2022-11-04T05:49:00.153Z,8.4
2022-11-04T05:50:00.200Z,8.4
2022-11-04T05:51:00.155Z,8.3
2022-11-04T05:52:00.153Z,8.3
2022-11-04T05:53:00.437Z,8.4
2022-11-04T05:54:00.178Z,8.4
2022-11-04T05:55:00.196Z,8.4
2022-11-04T05:56:00.149Z,8.4
2022-11-04T05:57:00.156Z,8.4
2022-11-04T05:58:00.167Z,8.4
2022-11-04T05:59:00.165Z,8.4
2022-11-04T06:00:00.172Z,8.4
2022-11-04T06:01:10.092Z,8.3
2022-11-04T06:02:00.414Z,8.3
2022-11-04T06:03:00.300Z,8.4
2022-11-04T06:04:00.976Z,8.4
2022-11-04T06:05:00.176Z,8.5
2022-11-04T06:06:00.154Z,8.5
2022-11-04T06:07:00.172Z,8.6
2022-11-04T06:08:00.160Z,8.6
2022-11-04T06:09:00.901Z,8.6
2022-11-04T06:10:00.207Z,8.6
2022-11-04T06:11:00.153Z,8.7
2022-11-04T06:12:00.157Z,8.7
2022-11-04T06:13:00.149Z,8.7
2022-11-04T06:14:00.312Z,8.7
2022-11-04T06:15:00.156Z,8.7
2022-11-04T06:16:00.162Z,8.7
2022-11-04T06:17:00.607Z,8.7
2022-11-04T06:18:00.179Z,8.7
2022-11-04T06:19:05.741Z,8.7
2022-11-04T06:20:00.155Z,8.7
2022-11-04T06:21:10.095Z,8.7
2022-11-04T06:22:00.149Z,8.7
2022-11-04T06:23:00.158Z,8.7
2022-11-04T06:24:00.159Z,8.7
2022-11-04T06:25:00.156Z,8.7
2022-11-04T06:26:00.153Z,8.7
2022-11-04T06:27:00.149Z,9.0
2022-11-04T06:28:00.160Z,9.0
2022-11-04T06:29:00.148Z,8.8
2022-11-04T06:30:00.180Z,8.8
2022-11-04T06:31:01.560Z,8.8
2022-11-04T06:32:00.169Z,8.8
2022-11-04T06:33:00.153Z,8.8
2022-11-04T06:34:00.174Z,8.8
2022-11-04T06:35:00.157Z,8.8
2022-11-04T06:36:00.836Z,8.8
2022-11-04T06:37:00.288Z,8.8
2022-11-04T06:38:00.155Z,8.8
2022-11-04T06:39:04.694Z,8.9
2022-11-04T06:40:00.231Z,8.9
2022-11-04T06:41:00.240Z,8.9
2022-11-04T06:42:02.696Z,8.9
2022-11-04T06:43:00.172Z,8.9
2022-11-04T06:44:00.175Z,8.9
2022-11-04T06:45:00.171Z,8.9
2022-11-04T06:46:01.000Z,8.9
2022-11-04T06:47:00.349Z,9.0
2022-11-04T06:48:00.160Z,9.0
2022-11-04T06:49:00.183Z,9.0
2022-11-04T06:50:00.160Z,9.0
2022-11-04T06:51:00.212Z,8.9
2022-11-04T06:52:00.161Z,8.9
2022-11-04T06:53:00.156Z,8.9
2022-11-04T06:54:00.394Z,8.9
2022-11-04T06:55:00.151Z,9.0
2022-11-04T06:56:01.782Z,9.0
2022-11-04T06:57:00.188Z,9.0
2022-11-04T06:58:00.156Z,9.0
2022-11-04T06:59:00.197Z,9.1
2022-11-04T07:00:00.160Z,9.1
2022-11-04T07:01:00.252Z,9.0
2022-11-04T07:02:00.353Z,9.0
2022-11-04T07:03:00.164Z,9.1
2022-11-04T07:04:00.797Z,9.1
2022-11-04T07:05:00.342Z,9.1
2022-11-04T07:06:04.465Z,9.1
2022-11-04T07:07:00.152Z,9.0
2022-11-04T07:08:00.167Z,9.0
2022-11-04T07:09:00.815Z,9.0
2022-11-04T07:10:00.158Z,9.0
2022-11-04T07:11:00.890Z,9.1
2022-11-04T07:12:00.224Z,9.1
2022-11-04T07:13:00.159Z,9.1
2022-11-04T07:14:00.154Z,9.1
2022-11-04T07:15:00.167Z,9.1
2022-11-04T07:16:02.875Z,9.1
2022-11-04T07:17:00.167Z,9.2
2022-11-04T07:18:00.154Z,9.2
2022-11-04T07:19:00.150Z,9.2
2022-11-04T07:20:00.392Z,9.2
2022-11-04T07:21:02.539Z,9.3
2022-11-04T07:22:00.153Z,9.3
2022-11-04T07:23:00.153Z,9.3
2022-11-04T07:24:00.550Z,9.3
2022-11-04T07:25:00.167Z,9.2
2022-11-04T07:26:00.747Z,9.2
2022-11-04T07:28:02.341Z,9.4
2022-11-04T07:29:00.470Z,9.3
2022-11-04T07:30:00.187Z,9.3
2022-11-04T07:31:00.914Z,9.4
2022-11-04T07:32:00.168Z,9.4
2022-11-04T07:33:00.152Z,9.5
2022-11-04T07:34:00.188Z,9.5
2022-11-04T07:35:00.169Z,9.5
2022-11-04T07:36:03.938Z,9.5
2022-11-04T07:37:00.151Z,9.4
2022-11-04T07:38:00.154Z,9.4
2022-11-04T07:39:00.161Z,9.5
2022-11-04T07:40:00.218Z,9.5
2022-11-04T07:41:00.597Z,9.3
2022-11-04T07:42:00.157Z,9.3
2022-11-04T07:43:00.494Z,9.4
2022-11-04T07:45:00.191Z,9.4
2022-11-04T07:46:01.092Z,9.4
2022-11-04T07:47:00.205Z,9.5
2022-11-04T07:48:00.153Z,9.5
2022-11-04T07:49:00.152Z,9.6
2022-11-04T07:50:00.274Z,9.6
2022-11-04T07:51:00.494Z,9.6
2022-11-04T07:52:00.184Z,9.6
2022-11-04T07:53:00.167Z,9.5
2022-11-04T07:54:00.181Z,9.5
2022-11-04T07:55:00.157Z,9.6
2022-11-04T07:56:04.966Z,9.6
2022-11-04T07:57:00.154Z,9.6
2022-11-04T07:59:00.246Z,9.5
2022-11-04T08:00:00.187Z,9.5
2022-11-04T08:01:01.306Z,9.7
2022-11-04T08:02:00.383Z,9.7
2022-11-04T08:03:00.235Z,9.8
2022-11-04T08:04:00.164Z,9.8
2022-11-04T08:05:00.164Z,9.6
2022-11-04T08:06:01.370Z,9.6
2022-11-04T08:07:00.166Z,9.7
2022-11-04T08:08:00.184Z,9.7
2022-11-04T08:09:00.274Z,9.8
2022-11-04T08:10:00.166Z,9.8
2022-11-04T08:11:03.911Z,9.9
2022-11-04T08:12:00.153Z,9.9
2022-11-04T08:13:00.174Z,9.9
2022-11-04T08:14:02.147Z,9.9
2022-11-04T08:15:00.176Z,9.9
2022-11-04T08:16:00.790Z,9.9
2022-11-04T08:17:00.195Z,9.9
2022-11-04T08:18:00.165Z,9.9
2022-11-04T08:19:00.471Z,9.9
2022-11-04T08:20:00.160Z,9.9
2022-11-04T08:21:00.187Z,9.9
2022-11-04T08:22:00.152Z,9.9
2022-11-04T08:24:00.186Z,9.9
2022-11-04T08:26:00.222Z,9.9
2022-11-04T08:27:00.442Z,10.1
2022-11-04T08:29:00.179Z,10.1
2022-11-04T08:30:00.238Z,10.1
2022-11-04T08:32:00.162Z,10.2
2022-11-04T08:33:00.167Z,10.2
2022-11-04T08:34:00.172Z,10.2
2022-11-04T08:35:00.157Z,10.4
2022-11-04T08:36:01.717Z,10.4
2022-11-04T08:37:00.152Z,10.6
2022-11-04T08:38:00.163Z,10.6
2022-11-04T08:39:03.255Z,10.6
2022-11-04T08:40:00.183Z,10.6
2022-11-04T08:41:01.258Z,10.6
2022-11-04T08:42:00.163Z,10.6
2022-11-04T08:43:00.176Z,10.7
2022-11-04T08:44:00.389Z,10.7
2022-11-04T08:45:00.172Z,10.8
2022-11-04T08:46:01.105Z,10.8
2022-11-04T08:47:02.387Z,10.6
2022-11-04T08:48:05.357Z,10.6
2022-11-04T08:49:01.078Z,10.7
2022-11-04T08:50:00.150Z,10.7
2022-11-04T08:51:00.637Z,10.8
2022-11-04T08:52:00.172Z,10.8
2022-11-04T08:53:00.372Z,10.8
2022-11-04T08:54:00.166Z,10.8
2022-11-04T08:55:00.160Z,11.0
2022-11-04T08:56:07.549Z,11.0
2022-11-04T08:57:01.348Z,11.0
2022-11-04T08:58:00.246Z,11.0
2022-11-04T08:59:00.685Z,11.2
2022-11-04T09:00:00.160Z,11.2
2022-11-04T09:01:02.293Z,11.2
2022-11-04T09:02:00.293Z,11.2
2022-11-04T09:03:00.159Z,11.2
2022-11-04T09:04:00.338Z,11.2
2022-11-04T09:05:00.167Z,11.3
2022-11-04T09:06:00.307Z,11.3
2022-11-04T09:07:06.756Z,11.2
2022-11-04T09:08:00.156Z,11.2
2022-11-04T09:09:00.293Z,11.2
2022-11-04T09:10:00.187Z,11.2
2022-11-04T09:11:00.156Z,11.3
2022-11-04T09:12:00.147Z,11.3
2022-11-04T09:13:00.165Z,11.3
2022-11-04T09:14:00.675Z,11.3
2022-11-04T09:15:00.284Z,11.4
2022-11-04T09:16:00.189Z,11.4
2022-11-04T09:17:00.155Z,11.5
2022-11-04T09:18:00.174Z,11.5
2022-11-04T09:19:00.222Z,11.6
2022-11-04T09:20:00.156Z,11.6
2022-11-04T09:21:00.824Z,11.6
2022-11-04T09:22:00.173Z,11.6
2022-11-04T09:23:00.178Z,11.7
2022-11-04T09:24:00.198Z,11.7
2022-11-04T09:25:00.268Z,11.9
2022-11-04T09:26:05.282Z,11.9
2022-11-04T09:27:00.158Z,12.1
2022-11-04T09:28:00.189Z,12.1
2022-11-04T09:29:00.207Z,12.2
2022-11-04T09:30:00.174Z,12.2
2022-11-04T09:31:03.655Z,12.2
2022-11-04T09:32:00.166Z,12.2
2022-11-04T09:33:00.180Z,12.1
2022-11-04T09:34:00.184Z,12.1
2022-11-04T09:35:00.168Z,12.2
2022-11-04T09:36:00.326Z,12.2
2022-11-04T09:37:00.160Z,12.2
2022-11-04T09:38:00.338Z,12.2
2022-11-04T09:39:00.159Z,12.2
2022-11-04T09:40:00.159Z,12.2
2022-11-04T09:41:00.374Z,12.2
2022-11-04T09:42:03.415Z,12.2
2022-11-04T09:43:10.398Z,12.2
2022-11-04T09:44:10.094Z,12.2
2022-11-04T09:45:22.160Z,12.3
2022-11-04T09:46:01.315Z,12.3
2022-11-04T09:47:01.732Z,12.3
2022-11-04T09:48:03.735Z,12.3
2022-11-04T09:49:01.522Z,12.3
2022-11-04T09:50:00.782Z,12.3
2022-11-04T09:51:02.459Z,12.2
2022-11-04T09:52:01.822Z,12.2
2022-11-04T09:53:04.193Z,12.3
2022-11-04T09:54:03.561Z,12.3
2022-11-04T09:55:00.157Z,12.1
2022-11-04T09:56:01.648Z,12.1
2022-11-04T09:57:00.626Z,12.3
2022-11-04T09:58:00.206Z,12.3
2022-11-04T09:59:02.091Z,12.2
2022-11-04T10:00:00.347Z,12.2
2022-11-04T10:01:04.719Z,12.4
2022-11-04T10:02:10.215Z,12.4
2022-11-04T10:03:03.398Z,12.3
2022-11-04T10:04:07.506Z,12.3
2022-11-04T10:05:10.098Z,12.4
2022-11-04T10:06:00.139Z,12.4
2022-11-04T10:07:10.099Z,12.3
2022-11-04T10:08:08.472Z,12.3
2022-11-04T10:09:00.139Z,12.2
2022-11-04T10:10:01.150Z,12.2
2022-11-04T10:11:03.220Z,12.3
2022-11-04T10:12:04.795Z,12.3
2022-11-04T10:13:10.500Z,12.4
2022-11-04T10:14:10.094Z,12.4
2022-11-04T10:15:01.156Z,12.2
2022-11-04T10:16:07.711Z,12.2
2022-11-04T10:17:10.090Z,12.2
2022-11-04T10:18:10.094Z,12.2
2022-11-04T10:19:10.090Z,12.1
2022-11-04T10:20:10.101Z,12.1
2022-11-04T10:21:03.425Z,12.2
2022-11-04T10:22:03.467Z,12.2
2022-11-04T10:23:07.533Z,12.2
2022-11-04T10:24:10.091Z,12.2
2022-11-04T10:25:10.105Z,12.2
2022-11-04T10:26:08.211Z,12.2
2022-11-04T10:27:03.057Z,12.2
2022-11-04T10:28:00.726Z,12.2
2022-11-04T10:29:02.720Z,12.1
2022-11-04T10:30:03.309Z,12.1
2022-11-04T10:31:01.508Z,12.1
2022-11-04T10:32:01.921Z,12.1
2022-11-04T10:33:01.163Z,12.2
2022-11-04T10:34:04.722Z,12.2
2022-11-04T10:35:04.697Z,12.2
2022-11-04T10:36:02.032Z,12.2
2022-11-04T10:37:00.865Z,12.2
2022-11-04T10:38:10.088Z,12.2
2022-11-04T10:39:03.475Z,12.2
2022-11-04T10:40:05.327Z,12.2
2022-11-04T10:42:00.467Z,12.1
2022-11-04T10:43:09.743Z,12.1
2022-11-04T10:44:10.092Z,12.1
2022-11-04T10:45:00.334Z,12.2
2022-11-04T10:46:08.075Z,12.2
2022-11-04T10:47:10.099Z,12.3
2022-11-04T10:48:05.559Z,12.3
2022-11-04T10:49:04.542Z,12.4
2022-11-04T10:50:29.538Z,12.4
2022-11-04T10:51:00.161Z,12.4
2022-11-04T10:52:00.270Z,12.4
2022-11-04T10:53:09.859Z,12.5
2022-11-04T10:54:00.252Z,12.5
2022-11-04T10:55:00.168Z,12.6
2022-11-04T10:56:10.140Z,12.6
2022-11-04T10:57:00.211Z,12.6
2022-11-04T10:58:00.219Z,12.6
2022-11-04T10:59:10.099Z,12.8
2022-11-04T11:00:01.701Z,12.8
2022-11-04T11:01:15.972Z,12.8
2022-11-04T11:02:01.193Z,12.8
2022-11-04T11:03:00.155Z,12.7
2022-11-04T11:04:00.345Z,12.7
2022-11-04T11:05:10.096Z,12.6
2022-11-04T11:06:10.095Z,12.6
2022-11-04T11:07:01.761Z,12.7
2022-11-04T11:08:00.175Z,12.7
2022-11-04T11:09:10.089Z,12.7
2022-11-04T11:10:00.191Z,12.7
2022-11-04T11:11:00.158Z,12.8
2022-11-04T11:12:02.603Z,12.8
2022-11-04T11:13:01.901Z,12.8
2022-11-04T11:14:00.159Z,12.8
2022-11-04T11:15:14.575Z,12.9
2022-11-04T11:16:10.095Z,12.9
2022-11-04T11:17:10.092Z,13.0
2022-11-04T11:18:10.095Z,13.0
2022-11-04T11:19:10.094Z,13.0
2022-11-04T11:20:01.453Z,13.0
2022-11-04T11:21:03.461Z,13.0
2022-11-04T11:22:00.157Z,13.0
2022-11-04T11:23:04.626Z,13.1
2022-11-04T11:24:10.099Z,13.1
2022-11-04T11:25:10.096Z,13.0
2022-11-04T11:26:00.618Z,13.0
2022-11-04T11:27:01.337Z,13.1
2022-11-04T11:28:01.455Z,13.1
2022-11-04T11:29:00.182Z,13.1
2022-11-04T11:30:00.206Z,13.1
2022-11-04T11:31:00.970Z,13.2
2022-11-04T11:32:00.199Z,13.2
2022-11-04T11:33:04.592Z,13.2
2022-11-04T11:34:03.409Z,13.2
2022-11-04T11:35:00.925Z,12.9
2022-11-04T11:36:02.911Z,12.9
2022-11-04T11:37:00.550Z,12.8
2022-11-04T11:38:00.427Z,12.8
2022-11-04T11:39:02.018Z,12.9
2022-11-04T11:40:00.230Z,12.9
2022-11-04T11:41:24.338Z,12.9
2022-11-04T11:42:01.971Z,12.9
2022-11-04T11:43:00.856Z,13.0
2022-11-04T11:44:04.690Z,13.0
2022-11-04T11:45:00.282Z,13.1
2022-11-04T11:46:00.324Z,13.1
2022-11-04T11:47:02.062Z,13.2
2022-11-04T11:48:00.161Z,13.2
2022-11-04T11:49:01.324Z,13.2
2022-11-04T11:50:10.099Z,13.2
2022-11-04T11:51:00.235Z,13.3
2022-11-04T11:52:10.093Z,13.3
2022-11-04T11:53:10.387Z,13.4
2022-11-04T11:54:10.094Z,13.4
2022-11-04T11:55:02.973Z,13.4
2022-11-04T11:56:00.147Z,13.4
2022-11-04T11:57:14.421Z,13.5
2022-11-04T12:01:07.376Z,13.6
2022-11-04T12:02:00.326Z,13.6
2022-11-04T12:03:00.817Z,13.9
2022-11-04T12:06:18.074Z,13.9
2022-11-04T12:09:18.902Z,14.1
2022-11-04T12:10:00.154Z,14.1
2022-11-04T12:11:05.947Z,14.3
2022-11-04T12:12:10.105Z,14.3
2022-11-04T12:13:14.483Z,14.2
2022-11-04T12:14:03.583Z,14.2
2022-11-04T12:15:01.163Z,14.4
2022-11-04T12:16:01.151Z,14.4
2022-11-04T12:17:00.139Z,14.3
2022-11-04T12:18:07.536Z,14.3
2022-11-04T12:19:08.688Z,14.3
2022-11-04T12:20:14.987Z,14.3
2022-11-04T12:21:04.485Z,14.4
2022-11-04T12:22:07.603Z,14.4
2022-11-04T12:23:10.497Z,14.5
2022-11-04T12:24:05.853Z,14.5
2022-11-04T12:25:08.481Z,14.7
2022-11-04T12:26:10.092Z,14.7
2022-11-04T12:27:10.093Z,14.6
2022-11-04T12:28:06.701Z,14.6
2022-11-04T12:29:09.451Z,14.7
2022-11-04T12:30:05.704Z,14.7
2022-11-04T12:31:10.087Z,14.6
2022-11-04T12:32:10.101Z,14.6
2022-11-04T12:33:00.141Z,14.6
2022-11-04T12:34:10.090Z,14.6
2022-11-04T12:35:10.102Z,14.7
2022-11-04T12:36:09.846Z,14.7
2022-11-04T12:37:00.133Z,14.6
2022-11-04T12:38:10.092Z,14.6
2022-11-04T12:39:09.517Z,14.6
2022-11-04T12:40:04.630Z,14.6
2022-11-04T12:41:37.627Z,14.5
2022-11-04T12:42:21.926Z,14.5
2022-11-04T12:43:07.464Z,14.5
2022-11-04T12:44:10.094Z,14.5
2022-11-04T12:45:10.099Z,14.5
2022-11-04T12:46:01.161Z,14.5
2022-11-04T12:47:10.097Z,14.4
2022-11-04T12:48:04.929Z,14.4
2022-11-04T12:49:10.088Z,14.4
2022-11-04T12:50:10.103Z,14.4
2022-11-04T12:51:04.153Z,14.3
2022-11-04T12:52:10.018Z,14.3
2022-11-04T12:53:10.485Z,14.3
2022-11-04T12:54:00.139Z,14.3
2022-11-04T12:55:05.040Z,14.2
2022-11-04T12:56:10.094Z,14.2
2022-11-04T12:57:03.394Z,14.3
2022-11-04T12:58:10.096Z,14.3
2022-11-04T12:59:10.101Z,14.2
2022-11-04T13:00:03.443Z,14.2
2022-11-04T13:01:02.364Z,14.2
2022-11-04T13:02:06.381Z,14.2
2022-11-04T13:03:03.880Z,14.2
2022-11-04T13:04:05.981Z,14.2
2022-11-04T13:05:10.095Z,14.4
2022-11-04T13:06:02.979Z,14.4
2022-11-04T13:07:03.730Z,14.3
2022-11-04T13:08:14.103Z,14.3
2022-11-04T13:09:03.949Z,14.4
2022-11-04T13:10:04.612Z,14.4
2022-11-04T13:11:10.091Z,14.5
2022-11-04T13:12:10.094Z,14.5
2022-11-04T13:13:01.298Z,14.5
2022-11-04T13:14:04.101Z,14.5
2022-11-04T13:15:01.774Z,14.5
2022-11-04T13:16:03.494Z,14.5
2022-11-04T13:17:04.172Z,14.3
2022-11-04T13:18:04.143Z,14.3
2022-11-04T13:19:00.654Z,14.5
2022-11-04T13:20:04.113Z,14.5
2022-11-04T13:21:03.232Z,14.4
2022-11-04T13:22:02.201Z,14.4
2022-11-04T13:23:03.623Z,14.2
2022-11-04T13:24:03.280Z,14.2
2022-11-04T13:25:06.255Z,14.2
2022-11-04T13:26:02.392Z,14.2
2022-11-04T13:27:02.712Z,14.3
2022-11-04T13:28:01.238Z,14.3
2022-11-04T13:29:08.970Z,14.3
2022-11-04T13:30:10.110Z,14.3
2022-11-04T13:31:10.092Z,14.2
2022-11-04T13:32:00.147Z,14.2
2022-11-04T13:33:01.160Z,14.2
2022-11-04T13:34:09.091Z,14.2
2022-11-04T13:35:07.605Z,14.1
2022-11-04T13:36:10.106Z,14.1
2022-11-04T13:37:03.410Z,14.2
2022-11-04T13:38:04.450Z,14.2
2022-11-04T13:39:04.780Z,14.1
2022-11-04T13:40:10.095Z,14.1
2022-11-04T13:41:01.159Z,14.2
2022-11-04T13:42:10.197Z,14.2
2022-11-04T13:43:10.442Z,14.1
2022-11-04T13:44:02.629Z,14.1
2022-11-04T13:45:08.160Z,14.1